createdAt,value
2022-09-03T00:01:19.035Z,2.40
2022-09-03T00:03:57.962Z,2.70
2022-09-03T00:06:33.297Z,3.00
2022-09-03T00:09:25.088Z,2.60
2022-09-03T00:12:11.057Z,2.28
2022-09-03T00:14:44.172Z,2.50
2022-09-03T00:17:16.280Z,2.80
2022-09-03T00:20:00.908Z,2.60
2022-09-03T00:22:33.575Z,3.03
2022-09-03T00:25:04.108Z,2.60
2022-09-03T00:27:36.979Z,2.42
2022-09-03T00:30:14.726Z,2.75
2022-09-03T00:33:06.912Z,2.88
2022-09-03T00:35:42.456Z,2.50
2022-09-03T00:38:09.467Z,2.53
2022-09-03T00:40:51.298Z,3.15
2022-09-03T00:43:33.147Z,2.92
2022-09-03T00:46:19.546Z,2.30
2022-09-03T00:49:30.080Z,2.42
2022-09-03T00:52:17.031Z,2.60
2022-09-03T00:54:54.473Z,2.30
2022-09-03T00:57:56.846Z,2.60
2022-09-03T01:00:23.803Z,2.50
2022-09-03T01:03:09.903Z,2.30
2022-09-03T01:06:13.645Z,2.78
2022-09-03T01:08:53.204Z,2.53
2022-09-03T01:11:59.683Z,2.65
2022-09-03T01:14:43.317Z,2.50
2022-09-03T01:17:51.090Z,2.58
2022-09-03T01:20:35.497Z,2.60
2022-09-03T01:23:24.717Z,2.50
2022-09-03T01:26:03.149Z,2.20
2022-09-03T01:28:57.278Z,2.50
2022-09-03T01:31:29.911Z,2.38
2022-09-03T01:34:08.918Z,2.40
2022-09-03T01:36:55.649Z,2.33
2022-09-03T01:39:51.899Z,3.53
2022-09-03T01:42:41.731Z,2.40
2022-09-03T01:45:31.918Z,2.38
2022-09-03T01:48:30.589Z,2.20
2022-09-03T01:51:17.959Z,2.30
2022-09-03T01:54:20.745Z,2.60
2022-09-03T01:57:34.897Z,2.15
2022-09-03T02:00:15.451Z,2.20
2022-09-03T02:02:48.002Z,2.72
2022-09-03T02:05:25.658Z,2.28
2022-09-03T02:08:02.889Z,2.15
2022-09-03T02:10:52.437Z,2.67
2022-09-03T02:13:26.984Z,2.25
2022-09-03T02:15:57.993Z,2.30
2022-09-03T02:18:30.869Z,2.38
2022-09-03T02:20:58.984Z,2.58
2022-09-03T02:23:28.379Z,2.10
2022-09-03T02:26:01.255Z,2.33
2022-09-03T02:28:32.758Z,2.20
2022-09-03T02:30:59.656Z,2.38
2022-09-03T02:33:26.664Z,1.92
2022-09-03T02:35:54.141Z,1.98
2022-09-03T02:38:25.775Z,1.95
2022-09-03T02:40:55.956Z,2.00
2022-09-03T02:43:30.949Z,2.38
2022-09-03T02:46:03.646Z,1.80
2022-09-03T02:48:30.685Z,2.67
2022-09-03T02:50:57.477Z,2.38
2022-09-03T02:53:24.366Z,2.70
2022-09-03T02:55:51.433Z,2.20
2022-09-03T02:58:18.156Z,2.20
2022-09-03T03:00:45.340Z,2.40
2022-09-03T03:03:12.124Z,2.25
2022-09-03T03:05:51.624Z,2.17
2022-09-03T03:08:21.183Z,2.38
2022-09-03T03:10:49.492Z,2.60
2022-09-03T03:13:16.761Z,2.55
2022-09-03T03:15:44.238Z,2.15
2022-09-03T03:18:14.487Z,2.30
2022-09-03T03:20:42.129Z,2.25
2022-09-03T03:23:09.847Z,2.40
2022-09-03T03:25:39.099Z,2.47
2022-09-03T03:28:07.019Z,2.20
2022-09-03T03:30:34.333Z,2.15
2022-09-03T03:33:01.476Z,2.25
2022-09-03T03:35:28.291Z,2.22
2022-09-03T03:37:57.494Z,2.08
2022-09-03T03:40:24.496Z,2.03
2022-09-03T03:42:51.252Z,2.20
2022-09-03T03:45:18.247Z,2.20
2022-09-03T03:47:45.049Z,2.00
2022-09-03T03:50:11.794Z,2.17
2022-09-03T03:52:38.614Z,2.05
2022-09-03T03:55:06.834Z,2.15
2022-09-03T03:57:33.595Z,2.28
2022-09-03T04:00:00.470Z,2.50
2022-09-03T04:02:27.316Z,2.38
2022-09-03T04:04:54.845Z,2.38
2022-09-03T04:07:21.677Z,2.25
2022-09-03T04:09:49.366Z,2.30
2022-09-03T04:12:17.496Z,2.15
2022-09-03T04:14:44.284Z,2.50
2022-09-03T04:17:11.079Z,2.22
2022-09-03T04:19:38.416Z,2.20
2022-09-03T04:22:05.212Z,2.47
2022-09-03T04:24:32.420Z,2.00
2022-09-03T04:26:59.332Z,2.35
2022-09-03T04:29:26.162Z,2.40
2022-09-03T04:32:11.343Z,2.50
2022-09-03T04:34:38.123Z,2.30
2022-09-03T04:37:04.972Z,2.03
2022-09-03T04:39:31.873Z,1.92
2022-09-03T04:42:00.080Z,2.17
2022-09-03T04:44:26.976Z,2.28
2022-09-03T04:46:53.758Z,2.50
2022-09-03T04:49:20.646Z,2.08
2022-09-03T04:51:47.409Z,2.20
2022-09-03T04:54:14.243Z,2.30
2022-09-03T04:56:40.979Z,2.00
2022-09-03T04:59:09.510Z,2.08
2022-09-03T05:01:38.547Z,2.30
2022-09-03T05:04:08.452Z,2.40
2022-09-03T05:06:36.843Z,2.25
2022-09-03T05:09:04.497Z,2.67
2022-09-03T05:11:31.337Z,2.92
2022-09-03T05:13:59.833Z,2.72
2022-09-03T05:16:28.860Z,2.58
2022-09-03T05:18:57.067Z,2.30
2022-09-03T05:21:24.514Z,2.20
2022-09-03T05:23:52.862Z,2.90
2022-09-03T05:26:23.126Z,2.65
2022-09-03T05:28:57.875Z,2.20
2022-09-03T05:31:26.743Z,2.03
2022-09-03T05:33:58.960Z,2.63
2022-09-03T05:36:34.770Z,4.90
2022-09-03T05:39:02.641Z,5.22
2022-09-03T05:41:29.917Z,3.08
2022-09-03T05:43:59.352Z,2.50
2022-09-03T05:46:34.257Z,2.70
2022-09-03T05:49:03.203Z,2.97
2022-09-03T05:51:30.850Z,2.83
2022-09-03T05:53:58.146Z,2.97
2022-09-03T05:56:26.786Z,3.05
2022-09-03T05:59:05.456Z,3.10
2022-09-03T06:01:34.989Z,3.40
2022-09-03T06:04:04.272Z,3.10
2022-09-03T06:06:34.377Z,2.80
2022-09-03T06:09:04.332Z,3.17
2022-09-03T06:11:33.119Z,3.45
2022-09-03T06:14:01.651Z,3.20
2022-09-03T06:16:31.952Z,3.47
2022-09-03T06:19:00.538Z,3.30
2022-09-03T06:21:27.793Z,3.22
2022-09-03T06:23:58.502Z,3.28
2022-09-03T06:26:29.194Z,2.95
2022-09-03T06:28:56.971Z,3.00
2022-09-03T06:31:24.239Z,2.80
2022-09-03T06:33:51.852Z,2.90
2022-09-03T06:36:19.557Z,2.63
2022-09-03T06:38:47.301Z,2.85
2022-09-03T06:41:21.006Z,2.92
2022-09-03T06:43:49.185Z,2.97
2022-09-03T06:46:18.277Z,2.55
2022-09-03T06:48:46.031Z,2.92
2022-09-03T06:51:17.749Z,2.67
2022-09-03T06:53:47.251Z,2.92
2022-09-03T06:56:19.595Z,2.72
2022-09-03T06:58:48.624Z,2.70
2022-09-03T07:01:19.203Z,2.65
2022-09-03T07:03:48.301Z,2.40
2022-09-03T07:06:17.538Z,2.38
2022-09-03T07:08:46.309Z,2.63
2022-09-03T07:11:19.476Z,2.47
2022-09-03T07:13:48.435Z,2.10
2022-09-03T07:16:18.579Z,1.90
2022-09-03T07:18:46.009Z,2.78
2022-09-03T07:21:15.353Z,2.10
2022-09-03T07:23:43.017Z,2.10
2022-09-03T07:26:15.684Z,2.38
2022-09-03T07:28:43.905Z,2.00
2022-09-03T07:31:14.024Z,2.13
2022-09-03T07:33:44.116Z,1.85
2022-09-03T07:36:14.294Z,2.13
2022-09-03T07:38:43.733Z,2.20
2022-09-03T07:41:12.768Z,2.08
2022-09-03T07:43:48.801Z,2.00
2022-09-03T07:46:23.713Z,1.80
2022-09-03T07:48:55.997Z,1.90
2022-09-03T07:51:26.466Z,1.80
2022-09-03T07:53:56.061Z,1.80
2022-09-03T07:56:23.398Z,1.90
2022-09-03T07:58:50.605Z,1.70
2022-09-03T08:01:19.987Z,2.10
2022-09-03T08:03:49.503Z,1.85
2022-09-03T08:06:18.784Z,1.80
2022-09-03T08:08:45.686Z,2.07
2022-09-03T08:11:14.869Z,2.00
2022-09-03T08:13:44.759Z,2.10
2022-09-03T08:16:13.732Z,2.20
2022-09-03T08:18:40.748Z,2.05
2022-09-03T08:21:10.504Z,1.87
2022-09-03T08:23:38.716Z,1.70
2022-09-03T08:26:07.760Z,1.95
2022-09-03T08:28:36.299Z,1.90
2022-09-03T08:31:11.944Z,1.88
2022-09-03T08:33:43.498Z,1.90
2022-09-03T08:36:16.347Z,2.03
2022-09-03T08:38:46.229Z,1.70
2022-09-03T08:41:19.825Z,2.00
2022-09-03T08:43:58.553Z,2.00
2022-09-03T08:46:52.033Z,1.80
2022-09-03T08:49:48.204Z,1.80
2022-09-03T08:52:34.483Z,1.80
2022-09-03T08:55:34.127Z,1.88
2022-09-03T08:58:19.339Z,1.70
2022-09-03T09:01:04.078Z,1.70
2022-09-03T09:03:35.042Z,1.58
2022-09-03T09:06:11.873Z,1.85
2022-09-03T09:08:44.638Z,2.00
2022-09-03T09:11:31.629Z,1.80
2022-09-03T09:14:07.691Z,1.83
2022-09-03T09:16:51.131Z,1.67
2022-09-03T09:19:50.520Z,1.90
2022-09-03T09:22:51.813Z,1.75
2022-09-03T09:25:24.411Z,1.92
2022-09-03T09:28:03.904Z,2.00
2022-09-03T09:30:32.541Z,2.20
2022-09-03T09:33:00.582Z,1.88
2022-09-03T09:35:27.411Z,2.10
2022-09-03T09:37:57.488Z,1.95
2022-09-03T09:40:35.299Z,2.00
2022-09-03T09:43:10.995Z,1.70
2022-09-03T09:45:40.659Z,1.92
2022-09-03T09:48:34.075Z,3.95
2022-09-03T09:51:06.129Z,1.90
2022-09-03T09:53:32.997Z,1.73
2022-09-03T09:56:00.415Z,1.60
2022-09-03T09:58:30.890Z,1.70
2022-09-03T10:00:59.820Z,3.08
2022-09-03T10:03:29.807Z,3.42
2022-09-03T10:06:34.761Z,2.57
2022-09-03T10:09:13.317Z,2.40
2022-09-03T10:11:45.141Z,2.08
2022-09-03T10:14:26.455Z,1.98
2022-09-03T10:17:13.069Z,2.33
2022-09-03T10:20:27.588Z,1.90
2022-09-03T10:23:04.377Z,2.20
2022-09-03T10:26:07.324Z,1.80
2022-09-03T10:28:41.366Z,1.90
2022-09-03T10:31:41.973Z,2.00
2022-09-03T10:34:20.931Z,1.90
2022-09-03T10:37:02.442Z,1.90
2022-09-03T10:39:58.919Z,1.80
2022-09-03T10:43:00.400Z,2.20
2022-09-03T10:45:39.194Z,1.55
2022-09-03T10:48:28.839Z,1.70
2022-09-03T10:51:16.269Z,2.00
2022-09-03T10:53:53.618Z,1.90
2022-09-03T10:56:40.303Z,1.60
2022-09-03T10:59:28.961Z,1.58
2022-09-03T11:02:26.705Z,1.77
2022-09-03T11:04:54.435Z,1.60
2022-09-03T11:07:25.879Z,1.83
2022-09-03T11:10:03.997Z,2.28
2022-09-03T11:12:43.437Z,1.92
2022-09-03T11:15:14.060Z,2.07
2022-09-03T11:17:47.048Z,1.80
2022-09-03T11:20:22.276Z,1.77
2022-09-03T11:22:54.680Z,1.83
2022-09-03T11:25:26.020Z,2.00
2022-09-03T11:28:18.188Z,2.33
2022-09-03T11:31:06.782Z,1.80
2022-09-03T11:33:40.946Z,1.88
2022-09-03T11:36:08.081Z,2.08
2022-09-03T11:38:37.369Z,1.73
2022-09-03T11:41:26.192Z,2.07
2022-09-03T11:43:54.427Z,2.17
2022-09-03T11:46:21.751Z,1.98
2022-09-03T11:48:57.717Z,1.70
2022-09-03T11:51:30.096Z,2.17
2022-09-03T11:54:05.482Z,1.97
2022-09-03T11:56:34.264Z,2.10
2022-09-03T11:59:16.479Z,2.00
2022-09-03T12:02:05.612Z,1.98
2022-09-03T12:04:45.680Z,2.03
2022-09-03T12:07:40.832Z,1.60
2022-09-03T12:10:43.790Z,4.00
2022-09-03T12:13:31.499Z,2.10
2022-09-03T12:16:15.954Z,1.77
2022-09-03T12:18:43.747Z,2.03
2022-09-03T12:21:11.556Z,2.10
2022-09-03T12:23:49.098Z,2.10
2022-09-03T12:26:24.694Z,1.90
2022-09-03T12:28:57.209Z,1.90
2022-09-03T12:31:29.855Z,1.70
2022-09-03T12:34:09.592Z,1.90
2022-09-03T12:36:45.105Z,1.70
2022-09-03T12:39:14.009Z,2.00
2022-09-03T12:41:54.415Z,2.00
2022-09-03T12:44:50.596Z,2.20
2022-09-03T12:47:37.046Z,2.27
2022-09-03T12:50:11.002Z,2.13
2022-09-03T12:52:52.305Z,2.10
2022-09-03T12:56:01.006Z,1.90
2022-09-03T12:58:37.054Z,2.08
2022-09-03T13:01:03.848Z,1.60
2022-09-03T13:03:40.904Z,2.20
2022-09-03T13:06:13.745Z,2.00
2022-09-03T13:08:52.912Z,2.15
2022-09-03T13:11:22.031Z,2.20
2022-09-03T13:14:01.435Z,2.10
2022-09-03T13:16:46.436Z,2.00
2022-09-03T13:19:16.402Z,2.30
2022-09-03T13:22:11.840Z,2.30
2022-09-03T13:25:12.866Z,2.30
2022-09-03T13:27:51.852Z,2.20
2022-09-03T13:30:23.485Z,2.40
2022-09-03T13:33:08.073Z,2.15
2022-09-03T13:35:40.448Z,2.17
2022-09-03T13:38:32.857Z,2.33
2022-09-03T13:41:11.062Z,2.00
2022-09-03T13:43:45.595Z,2.30
2022-09-03T13:46:31.904Z,2.10
2022-09-03T13:49:35.696Z,2.15
2022-09-03T13:52:08.799Z,2.00
2022-09-03T13:54:49.793Z,2.13
2022-09-03T13:57:38.699Z,1.90
2022-09-03T14:00:13.941Z,2.00
2022-09-03T14:02:54.311Z,2.30
2022-09-03T14:05:27.237Z,2.15
2022-09-03T14:07:57.002Z,2.03
2022-09-03T14:10:59.675Z,2.00
2022-09-03T14:13:39.654Z,2.17
2022-09-03T14:16:08.711Z,2.10
2022-09-03T14:19:06.788Z,2.10
2022-09-03T14:21:47.338Z,2.20
2022-09-03T14:24:31.896Z,2.47
2022-09-03T14:27:02.442Z,2.40
2022-09-03T14:29:32.305Z,2.28
2022-09-03T14:32:19.035Z,2.10
2022-09-03T14:35:00.110Z,2.63
2022-09-03T14:37:54.836Z,2.10
2022-09-03T14:40:34.915Z,1.98
2022-09-03T14:43:10.819Z,1.90
2022-09-03T14:45:43.342Z,2.25
2022-09-03T14:48:36.688Z,2.27
2022-09-03T14:51:19.816Z,2.42
2022-09-03T14:54:13.810Z,2.30
2022-09-03T14:57:02.289Z,2.38
2022-09-03T14:59:52.663Z,2.70
2022-09-03T15:02:34.645Z,2.50
2022-09-03T15:05:32.581Z,2.03
2022-09-03T15:08:05.957Z,2.10
2022-09-03T15:10:56.816Z,1.80
2022-09-03T15:13:42.235Z,2.20
2022-09-03T15:16:36.275Z,2.40
2022-09-03T15:19:18.267Z,2.30
2022-09-03T15:21:53.893Z,2.40
2022-09-03T15:24:23.606Z,2.58
2022-09-03T15:27:06.370Z,2.22
2022-09-03T15:29:45.651Z,2.30
2022-09-03T15:32:52.490Z,2.25
2022-09-03T15:35:38.113Z,3.10
2022-09-03T15:38:10.952Z,2.40
2022-09-03T15:40:46.423Z,2.08
2022-09-03T15:43:32.294Z,2.30
2022-09-03T15:46:14.726Z,2.10
2022-09-03T15:48:59.488Z,2.47
2022-09-03T15:52:03.478Z,2.40
2022-09-03T15:54:56.996Z,2.20
2022-09-03T15:57:36.501Z,2.20
2022-09-03T16:00:13.458Z,2.33
2022-09-03T16:02:44.686Z,2.20
2022-09-03T16:05:23.927Z,2.30
2022-09-03T16:08:33.977Z,2.20
2022-09-03T16:11:16.456Z,2.40
2022-09-03T16:14:21.880Z,2.38
2022-09-03T16:17:09.077Z,1.90
2022-09-03T16:19:47.515Z,2.20
2022-09-03T16:22:27.991Z,2.30
2022-09-03T16:25:13.898Z,2.90
2022-09-03T16:28:15.594Z,4.38
2022-09-03T16:31:02.824Z,2.70
2022-09-03T16:33:46.288Z,2.35
2022-09-03T16:36:27.992Z,2.10
2022-09-03T16:39:03.940Z,2.30
2022-09-03T16:41:47.416Z,2.40
2022-09-03T16:44:32.585Z,2.42
2022-09-03T16:47:15.379Z,2.20
2022-09-03T16:49:46.442Z,2.40
2022-09-03T16:52:38.511Z,2.10
2022-09-03T16:55:23.345Z,2.58
2022-09-03T16:58:22.110Z,2.20
2022-09-03T17:01:06.832Z,2.00
2022-09-03T17:04:12.048Z,2.40
2022-09-03T17:06:50.705Z,2.50
2022-09-03T17:09:43.300Z,2.63
2022-09-03T17:12:35.289Z,3.90
2022-09-03T17:15:20.956Z,4.47
2022-09-03T17:17:57.459Z,2.97
2022-09-03T17:20:50.987Z,3.17
2022-09-03T17:23:39.130Z,2.72
2022-09-03T17:26:39.117Z,2.65
2022-09-03T17:29:41.650Z,2.78
2022-09-03T17:32:27.963Z,2.20
2022-09-03T17:35:00.640Z,3.20
2022-09-03T17:37:38.410Z,3.10
2022-09-03T17:40:23.577Z,2.67
2022-09-03T17:43:35.804Z,2.70
2022-09-03T17:46:23.934Z,2.58
2022-09-03T17:48:55.640Z,2.80
2022-09-03T17:51:30.026Z,2.80
2022-09-03T17:54:16.045Z,3.00
2022-09-03T17:56:51.188Z,3.72
2022-09-03T17:59:45.476Z,3.88
2022-09-03T18:02:14.953Z,3.40
2022-09-03T18:04:51.302Z,3.60
2022-09-03T18:07:24.340Z,3.47
2022-09-03T18:10:12.989Z,3.60
2022-09-03T18:13:03.009Z,3.60
2022-09-03T18:15:48.228Z,4.27
2022-09-03T18:18:28.030Z,4.60
2022-09-03T18:21:24.284Z,4.43
2022-09-03T18:24:37.353Z,4.03
2022-09-03T18:27:41.157Z,3.75
2022-09-03T18:30:32.524Z,3.73
2022-09-03T18:33:17.824Z,7.60
2022-09-03T18:36:04.798Z,6.50
2022-09-03T18:38:53.406Z,3.95
2022-09-03T18:41:51.357Z,3.70
2022-09-03T18:44:48.251Z,3.50
2022-09-03T18:48:05.497Z,4.00
2022-09-03T18:51:07.602Z,3.30
2022-09-03T18:54:21.058Z,3.33
2022-09-03T18:57:10.995Z,3.58
2022-09-03T19:00:28.102Z,4.33
2022-09-03T19:03:44.544Z,3.90
2022-09-03T19:06:51.990Z,4.75
2022-09-03T19:09:59.814Z,4.40
2022-09-03T19:13:31.716Z,5.18
2022-09-03T19:16:35.847Z,6.73
2022-09-03T19:19:47.080Z,5.97
2022-09-03T19:22:57.533Z,5.45
2022-09-03T19:25:44.767Z,5.53
2022-09-03T19:28:42.417Z,6.15
2022-09-03T19:31:49.558Z,6.57
2022-09-03T19:34:43.925Z,6.45
2022-09-03T19:37:59.143Z,8.95
2022-09-03T19:41:16.844Z,7.85
2022-09-03T19:44:17.029Z,5.32
2022-09-03T19:47:19.842Z,9.37
2022-09-03T19:50:32.123Z,9.27
2022-09-03T19:53:25.279Z,8.57
2022-09-03T19:56:16.422Z,8.23
2022-09-03T19:59:32.254Z,6.68
2022-09-03T20:02:18.674Z,6.63
2022-09-03T20:05:10.273Z,5.70
2022-09-03T20:07:56.860Z,5.45
2022-09-03T20:10:25.415Z,4.60
2022-09-03T20:12:55.980Z,5.50
2022-09-03T20:15:29.912Z,5.13
2022-09-03T20:18:20.474Z,5.88
2022-09-03T20:21:21.923Z,6.28
2022-09-03T20:24:06.824Z,7.50
2022-09-03T20:26:58.683Z,6.00
2022-09-03T20:29:45.829Z,5.63
2022-09-03T20:32:36.802Z,5.55
2022-09-03T20:35:22.420Z,5.10
2022-09-03T20:38:10.497Z,5.43
2022-09-03T20:41:09.880Z,4.70
2022-09-03T20:43:36.585Z,5.43
2022-09-03T20:46:12.923Z,4.72
2022-09-03T20:48:57.913Z,4.78
2022-09-03T20:51:34.495Z,5.15
2022-09-03T20:54:13.726Z,5.70
2022-09-03T20:56:51.334Z,6.03
2022-09-03T20:59:44.438Z,5.53
2022-09-03T21:02:18.656Z,6.15
2022-09-03T21:05:11.459Z,6.20
2022-09-03T21:08:05.697Z,6.00
2022-09-03T21:11:00.856Z,6.67
2022-09-03T21:13:42.283Z,6.05
2022-09-03T21:16:36.957Z,6.30
2022-09-03T21:19:26.816Z,12.07
2022-09-03T21:22:02.519Z,11.13
2022-09-03T21:24:42.121Z,7.67
2022-09-03T21:27:14.970Z,9.73
2022-09-03T21:29:58.216Z,7.20
2022-09-03T21:32:52.222Z,6.53
2022-09-03T21:35:26.574Z,6.30
2022-09-03T21:38:06.964Z,6.40
2022-09-03T21:40:37.770Z,5.97
2022-09-03T21:43:15.169Z,6.47
2022-09-03T21:45:52.119Z,5.72
2022-09-03T21:49:01.149Z,5.80
2022-09-03T21:51:35.777Z,6.43
2022-09-03T21:54:10.527Z,6.13
2022-09-03T21:57:04.686Z,6.70
2022-09-03T21:59:57.853Z,7.20
2022-09-03T22:02:27.121Z,7.35
2022-09-03T22:04:55.828Z,6.60
2022-09-03T22:07:53.340Z,6.72
2022-09-03T22:10:37.463Z,6.40
2022-09-03T22:13:31.622Z,6.80
2022-09-03T22:16:26.666Z,6.18
2022-09-03T22:18:54.554Z,5.87
2022-09-03T22:21:36.050Z,6.63
2022-09-03T22:24:24.396Z,6.25
2022-09-03T22:27:15.722Z,5.80
2022-09-03T22:30:08.051Z,5.60
2022-09-03T22:33:01.287Z,4.77
2022-09-03T22:36:09.001Z,4.97
2022-09-03T22:39:05.342Z,4.80
2022-09-03T22:41:53.089Z,5.00
2022-09-03T22:44:37.707Z,4.90
2022-09-03T22:47:22.549Z,5.00
2022-09-03T22:50:09.344Z,4.88
2022-09-03T22:52:44.136Z,4.63
2022-09-03T22:55:26.105Z,5.15
2022-09-03T22:58:24.565Z,5.53
2022-09-03T23:00:58.956Z,5.37
2022-09-03T23:03:33.856Z,5.32
2022-09-03T23:06:07.906Z,4.95
2022-09-03T23:08:54.490Z,4.75
2022-09-03T23:11:25.493Z,4.72
2022-09-03T23:14:03.643Z,5.00
2022-09-03T23:16:53.070Z,5.25
2022-09-03T23:19:41.537Z,5.30
2022-09-03T23:22:17.866Z,5.18
2022-09-03T23:25:06.289Z,5.60
2022-09-03T23:27:55.214Z,5.72
2022-09-03T23:30:22.053Z,5.70
2022-09-03T23:32:54.901Z,5.25
2022-09-03T23:35:25.662Z,5.47
2022-09-03T23:38:26.867Z,5.85
2022-09-03T23:41:03.234Z,5.88
2022-09-03T23:44:01.594Z,6.10
2022-09-03T23:46:37.249Z,5.93
2022-09-03T23:49:20.056Z,6.70
2022-09-03T23:52:10.179Z,7.63
2022-09-03T23:54:47.777Z,7.47
2022-09-03T23:57:26.769Z,5.70
